Time;durP1;ratioP1;P1;durP2;ratioP2;P2;SDS_P1;SDS_P2;PMS_P1;PMS_P2;Temp;Humidity;BMP_temperature;BMP_pressure;BME280_temperature;BME280_humidity;BME280_pressure;Samples;Min_cycle;Max_cycle;Signal;HPM_P1;HPM_P2
2022/04/01 00:00:46;;;;;;;810.03;730.20;;;3.20;99.90;;;;;;5015864;28;20469;-80
2022/04/01 00:03:13;;;;;;;809.70;730.83;;;3.30;99.90;;;;;;5015766;28;20481;-83
2022/04/01 00:05:41;;;;;;;831.93;753.33;;;3.30;99.90;;;;;;5016483;28;20519;-81
2022/04/01 00:08:09;;;;;;;835.33;755.93;;;3.30;99.90;;;;;;5015503;28;20452;-80
2022/04/01 00:10:36;;;;;;;831.70;752.63;;;3.30;99.90;;;;;;5015690;28;20516;-82
2022/04/01 00:13:04;;;;;;;837.30;759.60;;;3.30;99.90;;;;;;5015578;28;20514;-81
2022/04/01 00:15:31;;;;;;;838.57;762.47;;;3.20;99.90;;;;;;5016425;28;20453;-83
2022/04/01 00:17:59;;;;;;;823.90;752.50;;;3.20;99.90;;;;;;5015717;28;20461;-81
2022/04/01 00:20:25;;;;;;;813.73;744.13;;;3.20;99.90;;;;;;5014881;28;20477;-82
2022/04/01 00:22:53;;;;;;;824.60;753.40;;;3.10;99.90;;;;;;5015495;28;20454;-82
2022/04/01 00:25:20;;;;;;;818.13;747.33;;;3.20;99.90;;;;;;5015347;28;20457;-83
2022/04/01 00:27:46;;;;;;;797.33;731.27;;;3.10;99.90;;;;;;5015502;28;20453;-82
2022/04/01 00:30:15;;;;;;;803.03;735.73;;;3.10;99.90;;;;;;5014199;28;20499;-82
2022/04/01 00:32:41;;;;;;;805.57;741.50;;;3.10;99.90;;;;;;5015260;28;20464;-81
2022/04/01 00:35:08;;;;;;;801.17;738.93;;;3.00;99.90;;;;;;5015289;28;20481;-81
2022/04/01 00:37:35;;;;;;;792.60;729.20;;;3.00;99.90;;;;;;5015695;28;20537;-82
2022/04/01 00:40:03;;;;;;;777.13;716.57;;;2.90;99.90;;;;;;5013896;28;20548;-82
2022/04/01 00:42:30;;;;;;;796.70;731.27;;;3.00;99.90;;;;;;5014610;28;20461;-81
2022/04/01 00:44:58;;;;;;;783.30;724.00;;;3.00;99.90;;;;;;5015149;28;20453;-82
2022/04/01 00:47:26;;;;;;;784.40;724.00;;;2.90;99.90;;;;;;5014961;28;20511;-82
2022/04/01 00:49:54;;;;;;;778.57;718.50;;;2.90;99.90;;;;;;5013670;28;20477;-83
2022/04/01 00:52:22;;;;;;;789.43;728.03;;;2.80;99.90;;;;;;5015364;28;20521;-81
2022/04/01 00:54:51;;;;;;;792.13;729.13;;;2.90;99.90;;;;;;5014674;28;20566;-82
2022/04/01 00:57:18;;;;;;;784.30;724.50;;;2.80;99.90;;;;;;5014498;28;20453;-82
2022/04/01 00:59:45;;;;;;;780.57;719.87;;;2.80;99.90;;;;;;5014096;28;20453;-82
2022/04/01 01:02:14;;;;;;;779.50;716.30;;;2.70;99.90;;;;;;5014515;28;20460;-82
2022/04/01 01:04:42;;;;;;;781.37;721.20;;;2.70;99.90;;;;;;5014690;28;20449;-82
2022/04/01 01:07:09;;;;;;;791.50;731.40;;;2.90;99.90;;;;;;5014959;28;20964;-82
2022/04/01 01:09:36;;;;;;;793.37;736.47;;;2.70;99.90;;;;;;5013995;28;20450;-82
2022/04/01 01:12:03;;;;;;;789.50;734.80;;;2.60;99.90;;;;;;5014351;28;20473;-81
2022/04/01 01:14:31;;;;;;;807.07;750.83;;;2.70;99.90;;;;;;5014652;28;20477;-82
2022/04/01 01:16:59;;;;;;;803.90;746.63;;;2.70;99.90;;;;;;5014515;28;20478;-82
2022/04/01 01:19:26;;;;;;;787.43;730.63;;;2.70;99.90;;;;;;5013332;28;20511;-82
2022/04/01 01:21:56;;;;;;;793.67;736.53;;;2.70;99.90;;;;;;5014839;28;20484;-81
2022/04/01 01:24:31;;;;;;;784.70;729.50;;;2.60;99.90;;;;;;5014360;28;20464;-82
2022/04/01 01:26:58;;;;;;;788.93;732.90;;;2.60;99.90;;;;;;5014072;28;20953;-82
2022/04/01 01:29:26;;;;;;;791.47;734.87;;;2.60;99.90;;;;;;5013251;28;20464;-82
2022/04/01 01:31:55;;;;;;;781.47;725.70;;;2.70;99.90;;;;;;5014343;28;20477;-82
2022/04/01 01:34:22;;;;;;;790.67;734.37;;;2.60;99.90;;;;;;5014103;28;20477;-82
2022/04/01 01:36:50;;;;;;;780.37;724.83;;;2.60;99.90;;;;;;5014249;28;20461;-82
2022/04/01 01:39:17;;;;;;;778.40;723.70;;;2.60;99.90;;;;;;5014007;28;20472;-82
2022/04/01 01:41:46;;;;;;;784.40;729.10;;;2.50;99.90;;;;;;5013804;28;20508;-83
2022/04/01 01:44:14;;;;;;;784.87;731.03;;;2.60;99.90;;;;;;5014190;28;20460;-82
2022/04/01 01:46:40;;;;;;;790.77;733.10;;;2.60;99.90;;;;;;5014154;28;20464;-82
2022/04/01 01:49:08;;;;;;;793.53;735.17;;;2.60;99.90;;;;;;5013468;28;20457;-83
2022/04/01 01:57:05;;;;;;;765.07;714.47;;;2.50;99.90;;;;;;5014390;28;20441;-82
2022/04/01 01:59:32;;;;;;;762.17;710.63;;;2.50;99.90;;;;;;5013216;28;20461;-81
2022/04/01 02:02:00;;;;;;;757.43;705.10;;;2.60;99.90;;;;;;5016242;28;20531;-81
2022/04/01 02:04:26;;;;;;;768.20;716.70;;;2.50;99.90;;;;;;5017915;28;20461;-81
2022/04/01 02:06:53;;;;;;;780.00;723.93;;;2.50;99.90;;;;;;5017696;28;20452;-82
2022/04/01 02:09:20;;;;;;;779.07;722.67;;;2.60;99.90;;;;;;5017152;28;20825;-82
2022/04/01 02:11:47;;;;;;;750.40;698.57;;;2.40;99.90;;;;;;5017516;28;21023;-82
2022/04/01 02:14:15;;;;;;;762.00;710.90;;;2.50;99.90;;;;;;5017715;28;20484;-83
2022/04/01 02:16:43;;;;;;;780.33;725.47;;;2.50;99.90;;;;;;5017568;28;20977;-82
2022/04/01 02:19:10;;;;;;;768.67;716.13;;;2.50;99.90;;;;;;5016483;28;20551;-82
2022/04/01 02:21:37;;;;;;;774.17;720.47;;;2.40;99.90;;;;;;5017296;28;20476;-82
2022/04/01 02:24:07;;;;;;;766.63;716.73;;;2.40;99.90;;;;;;5017501;28;20981;-82
2022/04/01 02:26:34;;;;;;;784.33;731.07;;;2.40;99.90;;;;;;5017125;28;20457;-82
2022/04/01 02:29:03;;;;;;;768.83;717.93;;;2.30;99.90;;;;;;5016308;28;20547;-82
2022/04/01 02:31:32;;;;;;;772.23;720.63;;;2.50;99.90;;;;;;5017172;28;20567;-81
2022/04/01 02:33:59;;;;;;;764.07;715.77;;;2.40;99.90;;;;;;5017437;28;20453;-82
2022/04/01 02:36:25;;;;;;;755.10;708.40;;;2.40;99.90;;;;;;5017123;28;20457;-81
2022/04/01 02:38:53;;;;;;;737.17;694.30;;;2.40;99.90;;;;;;5015941;28;20457;-81
2022/04/01 02:41:20;;;;;;;745.07;700.67;;;2.40;99.90;;;;;;5017340;28;20484;-81
2022/04/01 02:43:47;;;;;;;762.43;714.93;;;2.30;99.90;;;;;;5016992;28;20457;-81
2022/04/01 02:46:14;;;;;;;744.20;699.53;;;2.40;99.90;;;;;;5016996;28;20454;-82
2022/04/01 02:48:43;;;;;;;773.40;725.27;;;2.30;99.90;;;;;;5016012;28;20463;-82
2022/04/01 02:51:09;;;;;;;727.40;685.97;;;2.40;99.90;;;;;;5017032;28;20484;-81
2022/04/01 02:53:36;;;;;;;750.60;706.07;;;2.30;99.90;;;;;;5016697;28;20453;-81
2022/04/01 02:56:03;;;;;;;773.07;724.70;;;2.30;99.90;;;;;;5016237;28;20484;-81
2022/04/01 02:58:29;;;;;;;763.70;714.90;;;2.30;99.90;;;;;;5016295;28;20457;-81
2022/04/01 03:00:56;;;;;;;764.80;716.50;;;2.20;99.90;;;;;;5016554;28;20484;-81
2022/04/01 03:03:23;;;;;;;758.80;711.57;;;2.20;99.90;;;;;;5016755;28;20508;-81
2022/04/01 03:05:52;;;;;;;749.83;703.03;;;2.10;99.90;;;;;;5016473;28;20453;-81
2022/04/01 03:08:19;;;;;;;737.50;693.00;;;2.20;99.90;;;;;;5015739;28;20873;-82
2022/04/01 03:10:45;;;;;;;689.53;652.10;;;2.20;99.90;;;;;;5016466;28;20473;-82
2022/04/01 03:13:12;;;;;;;731.77;687.17;;;2.20;99.90;;;;;;5016158;28;20468;-81
2022/04/01 03:15:39;;;;;;;707.53;668.70;;;2.10;99.90;;;;;;5016381;28;21013;-82
2022/04/01 03:18:06;;;;;;;698.17;659.00;;;2.20;99.90;;;;;;5016346;28;20453;-80
2022/04/01 03:20:35;;;;;;;723.03;681.03;;;2.10;99.90;;;;;;5016165;28;20477;-82
2022/04/01 03:23:04;;;;;;;718.97;677.07;;;2.10;99.90;;;;;;5016380;28;20493;-82
2022/04/01 03:25:32;;;;;;;745.47;700.72;;;2.10;99.90;;;;;;5016252;28;20464;-82
2022/04/01 03:28:00;;;;;;;730.93;687.43;;;2.10;99.90;;;;;;5016206;28;20274;-82
2022/04/01 03:30:27;;;;;;;695.77;657.87;;;2.00;99.90;;;;;;5024677;28;20484;-80
2022/04/01 03:32:55;;;;;;;710.90;671.83;;;2.00;99.90;;;;;;5027323;28;20479;-81
2022/04/01 03:35:22;;;;;;;649.40;617.70;;;2.10;99.90;;;;;;5028597;28;20484;-80
2022/04/01 03:37:49;;;;;;;639.00;608.20;;;2.10;99.90;;;;;;5024749;28;20460;-81
2022/04/01 03:40:18;;;;;;;641.10;610.60;;;2.00;99.90;;;;;;5015729;28;20485;-81
2022/04/01 03:42:46;;;;;;;649.87;618.10;;;2.10;99.90;;;;;;5016277;28;20453;-81
2022/04/01 03:45:14;;;;;;;655.37;623.57;;;2.10;99.90;;;;;;5016011;28;20507;-81
2022/04/01 03:47:51;;;;;;;681.10;645.60;;;1.90;99.90;;;;;;5015992;28;20540;-82
2022/04/01 03:50:20;;;;;;;627.40;597.83;;;1.90;99.90;;;;;;5015156;28;20480;-81
2022/04/01 03:52:47;;;;;;;553.50;530.17;;;2.00;99.90;;;;;;5016117;28;20832;-82
2022/04/01 03:55:15;;;;;;;526.57;505.30;;;2.00;99.90;;;;;;5016279;28;20226;-81
2022/04/01 03:57:43;;;;;;;578.43;554.03;;;1.90;99.90;;;;;;5015918;28;20464;-82
2022/04/01 04:00:14;;;;;;;611.67;583.97;;;1.90;99.90;;;;;;5015358;28;20484;-82
2022/04/01 04:02:42;;;;;;;573.73;548.90;;;2.00;99.90;;;;;;5015904;28;20954;-82
2022/04/01 04:05:10;;;;;;;503.27;483.53;;;2.00;99.90;;;;;;5016003;28;20464;-82
2022/04/01 04:07:39;;;;;;;555.40;531.60;;;2.00;99.90;;;;;;5016012;28;20453;-82
2022/04/01 04:10:07;;;;;;;639.40;608.67;;;1.90;99.90;;;;;;5014740;28;20892;-81
2022/04/01 04:12:35;;;;;;;578.63;553.00;;;2.00;99.90;;;;;;5016472;28;20457;-83
2022/04/01 04:15:05;;;;;;;573.83;548.58;;;1.90;99.90;;;;;;5016641;28;20527;-81
2022/04/01 04:17:42;;;;;;;510.70;490.30;;;1.80;99.90;;;;;;5016778;28;20199;-82
2022/04/01 04:20:13;;;;;;;464.40;447.10;;;1.90;99.90;;;;;;5016395;28;20480;-81
2022/04/01 04:22:55;;;;;;;427.07;411.30;;;2.00;99.90;;;;;;5018230;28;20482;-81
2022/04/01 04:25:25;;;;;;;435.60;419.57;;;1.90;99.90;;;;;;5018118;28;20456;-82
2022/04/01 04:27:57;;;;;;;478.23;459.33;;;1.90;99.90;;;;;;5021769;28;20456;-81
2022/04/01 04:30:32;;;;;;;473.33;455.43;;;1.80;99.90;;;;;;5026903;28;20480;-81
2022/04/01 04:33:05;;;;;;;450.17;433.60;;;1.90;99.90;;;;;;5028130;28;20449;-82
2022/04/01 04:35:36;;;;;;;386.10;372.60;;;1.80;99.90;;;;;;5025781;28;20985;-81
2022/04/01 04:38:04;;;;;;;368.33;355.80;;;1.90;99.90;;;;;;5016035;28;20973;-82
2022/04/01 04:40:32;;;;;;;389.63;375.33;;;1.90;99.90;;;;;;5041152;23;20495;-82
2022/04/01 04:42:59;;;;;;;417.60;402.50;;;1.90;99.90;;;;;;5038929;28;20542;-84
2022/04/01 04:45:28;;;;;;;371.33;358.80;;;1.90;99.90;;;;;;5039563;28;20444;-83
2022/04/01 04:47:57;;;;;;;377.17;364.33;;;1.90;99.90;;;;;;5040043;28;20484;-83
2022/04/01 04:50:24;;;;;;;327.27;316.57;;;2.00;99.90;;;;;;5039403;28;20452;-83
2022/04/01 04:52:54;;;;;;;400.23;386.33;;;1.80;99.90;;;;;;5039807;28;20949;-84
2022/04/01 04:55:22;;;;;;;404.60;390.37;;;1.90;99.90;;;;;;5039539;28;20483;-84
2022/04/01 04:57:51;;;;;;;419.90;404.63;;;2.00;99.90;;;;;;5040222;28;20475;-83
2022/04/01 05:00:20;;;;;;;359.07;346.67;;;2.00;99.90;;;;;;5037867;28;20961;-82
2022/04/01 05:03:06;;;;;;;384.57;371.37;;;1.80;99.90;;;;;;5038989;28;20459;-83
2022/04/01 05:05:38;;;;;;;333.30;322.27;;;1.90;99.90;;;;;;5038614;28;20455;-84
2022/04/01 05:08:11;;;;;;;410.43;395.33;;;1.80;99.90;;;;;;5038273;28;20463;-80
2022/04/01 05:10:43;;;;;;;349.00;337.07;;;1.80;99.90;;;;;;5038630;28;20483;-82
2022/04/01 05:13:17;;;;;;;329.37;318.27;;;1.80;99.90;;;;;;5039349;28;20448;-83
2022/04/01 05:15:50;;;;;;;367.83;355.20;;;1.90;99.90;;;;;;5038983;28;20479;-82
2022/04/01 05:18:26;;;;;;;311.37;300.67;;;1.90;99.90;;;;;;5037846;28;20558;-82
2022/04/01 05:20:57;;;;;;;229.03;221.33;;;1.90;99.90;;;;;;5039459;28;20491;-83
2022/04/01 05:23:41;;;;;;;163.77;158.03;;;1.80;99.90;;;;;;5039251;28;20460;-84
2022/04/01 05:26:12;;;;;;;290.03;280.33;;;1.80;99.90;;;;;;5038750;28;20980;-83
2022/04/01 05:28:44;;;;;;;281.67;272.47;;;1.80;99.90;;;;;;5032578;28;20514;-81
2022/04/01 05:31:18;;;;;;;245.33;237.23;;;1.90;99.90;;;;;;5033042;28;20480;-81
2022/04/01 05:33:55;;;;;;;188.73;182.03;;;1.90;99.90;;;;;;5031247;28;20463;-82
2022/04/01 05:36:22;;;;;;;203.60;196.67;;;1.80;99.90;;;;;;5035694;28;20940;-82
2022/04/01 05:38:49;;;;;;;208.70;201.93;;;2.00;99.90;;;;;;5036634;28;20452;-82
2022/04/01 05:41:19;;;;;;;235.47;227.67;;;1.80;99.90;;;;;;5034287;28;20480;-82
2022/04/01 05:43:47;;;;;;;174.80;168.57;;;1.90;99.90;;;;;;5037129;28;20483;-82
2022/04/01 05:46:14;;;;;;;178.23;172.10;;;1.90;99.90;;;;;;5037401;28;20460;-82
2022/04/01 05:48:42;;;;;;;157.30;151.50;;;1.80;99.90;;;;;;5035533;28;20462;-82
2022/04/01 05:51:14;;;;;;;84.97;81.30;;;1.90;99.90;;;;;;5038433;28;20482;-81
2022/04/01 05:53:44;;;;;;;117.57;113.07;;;1.90;99.90;;;;;;5035813;28;20487;-81
2022/04/01 05:56:11;;;;;;;85.23;81.37;;;1.90;99.90;;;;;;5037242;28;20483;-82
2022/04/01 05:58:38;;;;;;;103.37;99.27;;;1.80;99.90;;;;;;5036608;28;20456;-82
2022/04/01 06:01:13;;;;;;;57.80;55.20;;;1.80;99.90;;;;;;5035391;28;20476;-80
2022/04/01 06:04:10;;;;;;;66.70;63.73;;;1.90;99.90;;;;;;5037487;28;20455;-79
2022/04/01 06:06:41;;;;;;;61.30;58.60;;;1.90;99.90;;;;;;5030729;28;20464;-82
2022/04/01 06:09:29;;;;;;;65.87;62.83;;;1.90;99.90;;;;;;5036386;28;20448;-80
2022/04/01 06:12:01;;;;;;;46.80;44.50;;;2.00;99.90;;;;;;5036373;28;20479;-81
2022/04/01 06:14:36;;;;;;;60.20;57.60;;;1.90;99.90;;;;;;5035077;28;20460;-81
2022/04/01 06:17:09;;;;;;;90.07;86.37;;;1.90;99.90;;;;;;5036372;28;20549;-82
2022/04/01 06:19:44;;;;;;;89.83;86.03;;;2.00;99.90;;;;;;5034663;28;20852;-80
2022/04/01 06:22:15;;;;;;;53.13;50.57;;;2.00;99.90;;;;;;5036411;28;20471;-81
2022/04/01 06:24:54;;;;;;;124.93;120.17;;;1.90;99.90;;;;;;5036629;28;20460;-81
2022/04/01 06:27:23;;;;;;;46.43;43.93;;;1.90;99.90;;;;;;5034619;28;20551;-81
2022/04/01 06:30:00;;;;;;;85.17;81.33;;;2.00;99.90;;;;;;5034988;28;20452;-81
2022/04/01 06:32:33;;;;;;;88.40;84.80;;;2.00;99.90;;;;;;5034694;28;20468;-81
2022/04/01 06:35:06;;;;;;;84.43;80.53;;;1.90;99.90;;;;;;5035464;28;20506;-83
2022/04/01 06:37:40;;;;;;;82.67;79.20;;;2.00;99.90;;;;;;5035552;28;20460;-80
2022/04/01 06:40:10;;;;;;;63.37;60.57;;;1.90;99.90;;;;;;5032101;28;20460;-82
2022/04/01 06:42:38;;;;;;;78.63;75.13;;;1.90;99.90;;;;;;5036616;28;20480;-81
2022/04/01 06:45:07;;;;;;;37.77;35.87;;;2.00;99.90;;;;;;5035192;28;20964;-81
2022/04/01 06:47:35;;;;;;;45.63;43.33;;;2.00;99.90;;;;;;5033818;28;20457;-81
2022/04/01 06:50:02;;;;;;;26.20;24.60;;;1.90;99.90;;;;;;5035330;28;20459;-82
2022/04/01 06:52:29;;;;;;;25.00;23.40;;;2.00;99.90;;;;;;5035711;28;20476;-81
2022/04/01 06:54:57;;;;;;;45.40;43.10;;;2.00;99.90;;;;;;5035525;28;20463;-81
2022/04/01 06:57:24;;;;;;;19.93;18.60;;;1.90;99.90;;;;;;5035844;28;20479;-81
2022/04/01 06:59:52;;;;;;;17.33;16.13;;;2.00;99.90;;;;;;5035239;28;20468;-81
2022/04/01 07:02:18;;;;;;;26.37;24.77;;;2.00;99.90;;;;;;5035604;28;20852;-81
2022/04/01 07:04:45;;;;;;;19.07;17.73;;;2.00;99.90;;;;;;5034259;28;20452;-82
2022/04/01 07:07:12;;;;;;;21.13;19.63;;;2.00;99.90;;;;;;5033746;28;20815;-81
2022/04/01 07:09:39;;;;;;;21.67;19.83;;;2.00;99.90;;;;;;5033366;28;20480;-80
2022/04/01 07:12:07;;;;;;;23.90;22.37;;;2.00;99.90;;;;;;5033923;28;20886;-81
2022/04/01 07:14:35;;;;;;;24.73;23.03;;;2.10;99.90;;;;;;5034277;28;20447;-81
2022/04/01 07:17:01;;;;;;;16.23;15.03;;;2.10;99.90;;;;;;5034185;28;20472;-81
2022/04/01 07:19:29;;;;;;;21.40;19.80;;;2.10;99.10;;;;;;5032866;28;20488;-82
2022/04/01 07:21:56;;;;;;;23.03;21.37;;;2.00;99.90;;;;;;5033984;28;20480;-80
2022/04/01 07:24:22;;;;;;;14.47;13.27;;;2.10;99.90;;;;;;5034332;28;20492;-81
2022/04/01 07:26:49;;;;;;;16.53;15.13;;;2.00;98.70;;;;;;5034030;28;20449;-81
2022/04/01 07:29:17;;;;;;;16.73;15.37;;;2.00;99.40;;;;;;5033395;28;20456;-81
2022/04/01 07:34:34;;;;;;;17.47;16.17;;;2.00;99.40;;;;;;5033393;28;20448;-82
2022/04/01 07:37:02;;;;;;;20.17;18.70;;;2.10;98.80;;;;;;5033089;28;20480;-82
2022/04/01 07:39:28;;;;;;;17.77;16.37;;;2.10;99.50;;;;;;5032712;28;20460;-82
2022/04/01 07:41:55;;;;;;;13.50;12.43;;;2.30;99.30;;;;;;5032472;28;20506;-82
2022/04/01 07:44:23;;;;;;;12.90;11.90;;;2.10;96.70;;;;;;5035394;28;20475;-82
2022/04/01 07:46:50;;;;;;;12.30;10.23;;;2.20;98.30;;;;;;5035045;28;20456;-80
2022/04/01 07:49:18;;;;;;;11.97;10.97;;;2.20;96.10;;;;;;5035039;28;20208;-82
2022/04/01 07:51:44;;;;;;;11.97;10.77;;;2.30;96.30;;;;;;5034775;28;20476;-82
2022/04/01 07:54:11;;;;;;;11.60;10.40;;;2.20;96.30;;;;;;5034046;28;20463;-82
2022/04/01 07:56:40;;;;;;;8.40;7.07;;;2.30;96.30;;;;;;5034301;28;20480;-81
2022/04/01 07:59:07;;;;;;;10.50;8.80;;;2.20;94.80;;;;;;5032776;28;20471;-82
2022/04/01 08:01:35;;;;;;;9.63;8.73;;;2.20;95.10;;;;;;5034634;28;20991;-81
2022/04/01 08:04:02;;;;;;;10.10;8.33;;;2.10;95.20;;;;;;5034862;28;20463;-81
2022/04/01 08:06:29;;;;;;;11.90;10.33;;;2.20;95.20;;;;;;5034238;28;20471;-82
2022/04/01 08:08:58;;;;;;;8.20;7.17;;;2.20;95.00;;;;;;5033263;28;20487;-82
2022/04/01 08:11:25;;;;;;;17.63;9.20;;;2.10;94.90;;;;;;5034405;28;20490;-82
2022/04/01 08:13:52;;;;;;;9.90;7.93;;;2.10;94.20;;;;;;5034589;28;20506;-82
2022/04/01 08:16:19;;;;;;;13.53;10.47;;;2.00;93.80;;;;;;5033962;28;20472;-82
2022/04/01 08:18:47;;;;;;;12.03;10.20;;;2.20;95.70;;;;;;5032870;28;20455;-82
2022/04/01 08:21:14;;;;;;;8.93;6.57;;;2.20;94.70;;;;;;5034494;28;20472;-82
2022/04/01 08:23:42;;;;;;;12.67;9.23;;;2.10;94.30;;;;;;5036353;28;21130;-82
2022/04/01 08:26:09;;;;;;;10.03;8.77;;;2.00;93.80;;;;;;5034401;28;20459;-81
2022/04/01 08:28:36;;;;;;;9.63;7.70;;;2.10;93.80;;;;;;5033791;28;20491;-81
2022/04/01 08:31:03;;;;;;;11.13;7.70;;;2.00;94.00;;;;;;5033980;28;20507;-82
2022/04/01 08:33:30;;;;;;;13.13;8.47;;;2.10;93.60;;;;;;5034301;28;20452;-81
2022/04/01 08:35:58;;;;;;;11.63;8.43;;;2.00;93.60;;;;;;5033666;28;20947;-81
2022/04/01 08:38:25;;;;;;;8.27;7.23;;;2.10;93.80;;;;;;5032964;28;20893;-81
2022/04/01 08:40:52;;;;;;;7.80;7.00;;;2.10;94.50;;;;;;5034114;28;20495;-81
2022/04/01 08:43:26;;;;;;;12.73;10.07;;;2.10;94.00;;;;;;5033101;28;20507;-81
2022/04/01 08:45:53;;;;;;;8.73;7.93;;;2.20;94.20;;;;;;5034394;28;20456;-81
2022/04/01 08:48:21;;;;;;;9.20;7.27;;;2.10;93.20;;;;;;5034504;28;20467;-81
2022/04/01 08:50:47;;;;;;;10.37;8.33;;;1.90;92.90;;;;;;5034351;28;20476;-82
2022/04/01 08:53:15;;;;;;;10.43;7.10;;;2.00;92.50;;;;;;5034890;28;20834;-82
2022/04/01 08:55:47;;;;;;;9.17;6.53;;;2.00;92.70;;;;;;5034127;28;20456;-82
2022/04/01 08:58:16;;;;;;;8.43;6.83;;;2.10;92.50;;;;;;5033971;28;20461;-82
2022/04/01 09:00:44;;;;;;;7.73;6.10;;;2.00;92.20;;;;;;5034253;28;20504;-81
2022/04/01 09:03:12;;;;;;;10.83;7.90;;;1.90;92.20;;;;;;5033913;28;20452;-82
2022/04/01 09:05:43;;;;;;;9.03;7.43;;;2.10;92.70;;;;;;5034251;28;20456;-82
2022/04/01 09:08:10;;;;;;;11.40;8.60;;;2.00;91.70;;;;;;5033700;28;20488;-80
2022/04/01 09:10:58;;;;;;;9.90;7.10;;;2.00;92.80;;;;;;5033220;28;20480;-82
2022/04/01 09:13:27;;;;;;;10.83;8.13;;;2.10;91.70;;;;;;5034213;28;20882;-82
2022/04/01 09:15:55;;;;;;;8.63;5.80;;;2.00;91.70;;;;;;5033810;28;20456;-82
2022/04/01 09:18:39;;;;;;;9.40;8.07;;;1.90;91.80;;;;;;5033310;28;20805;-82
2022/04/01 09:21:06;;;;;;;9.97;6.40;;;2.00;92.00;;;;;;5034138;28;20479;-82
2022/04/01 09:23:35;;;;;;;8.00;5.40;;;1.90;91.20;;;;;;5033884;28;20456;-82
2022/04/01 09:26:05;;;;;;;10.03;7.10;;;1.90;90.70;;;;;;5034073;28;21024;-82
2022/04/01 09:28:33;;;;;;;15.13;7.20;;;2.00;90.90;;;;;;5033046;28;20452;-82
2022/04/01 09:31:03;;;;;;;7.10;4.97;;;2.00;90.10;;;;;;5033079;28;20483;-82
2022/04/01 09:33:46;;;;;;;10.10;6.20;;;2.00;90.80;;;;;;5032915;28;20464;-82
2022/04/01 09:36:14;;;;;;;11.67;7.03;;;2.00;90.80;;;;;;5033470;28;20830;-82
2022/04/01 09:38:55;;;;;;;9.23;6.57;;;2.10;90.40;;;;;;5033297;28;20456;-82
2022/04/01 09:41:33;;;;;;;8.60;7.30;;;2.10;89.30;;;;;;5031812;28;20476;-82
2022/04/01 09:44:09;;;;;;;9.27;7.50;;;2.20;89.90;;;;;;5032880;28;20456;-82
2022/04/01 09:46:40;;;;;;;13.73;7.57;;;2.30;89.90;;;;;;5033390;28;20833;-82
2022/04/01 09:49:08;;;;;;;8.63;5.73;;;2.20;87.90;;;;;;5032168;28;20487;-81
2022/04/01 09:51:35;;;;;;;10.03;6.57;;;2.10;86.50;;;;;;5033457;28;20479;-81
2022/04/01 09:54:04;;;;;;;9.00;6.57;;;2.20;86.50;;;;;;5032583;28;20460;-82
2022/04/01 09:56:44;;;;;;;9.80;5.87;;;2.20;86.60;;;;;;5033550;28;20852;-82
2022/04/01 09:59:12;;;;;;;7.30;5.60;;;2.20;83.80;;;;;;5031899;28;20514;-82
2022/04/01 10:01:40;;;;;;;11.13;7.90;;;2.20;83.30;;;;;;5032752;28;20480;-81
2022/04/01 10:04:08;;;;;;;8.13;5.80;;;2.30;84.80;;;;;;5033104;28;20457;-82
2022/04/01 10:06:36;;;;;;;8.93;5.93;;;2.40;80.50;;;;;;5032485;28;21132;-82
2022/04/01 10:09:05;;;;;;;6.07;5.00;;;2.50;84.10;;;;;;5031710;28;20464;-82
2022/04/01 10:11:33;;;;;;;7.77;5.50;;;2.60;82.20;;;;;;5033148;28;20467;-82
2022/04/01 10:14:06;;;;;;;7.50;5.00;;;2.50;79.30;;;;;;5032567;28;20453;-81
2022/04/01 10:16:35;;;;;;;7.80;4.63;;;2.40;79.20;;;;;;5032372;28;20476;-82
2022/04/01 10:19:07;;;;;;;7.10;3.97;;;2.40;78.20;;;;;;5033714;28;20492;-83
2022/04/01 10:21:34;;;;;;;7.57;4.53;;;2.30;75.30;;;;;;5034683;28;20476;-82
2022/04/01 10:24:09;;;;;;;8.43;6.20;;;2.30;76.50;;;;;;5037106;28;20453;-82
2022/04/01 10:26:40;;;;;;;10.40;5.67;;;2.30;78.30;;;;;;5036093;28;20452;-81
2022/04/01 10:29:09;;;;;;;9.43;6.27;;;2.40;78.60;;;;;;5035826;28;20467;-82
2022/04/01 10:31:35;;;;;;;6.70;5.00;;;2.20;76.30;;;;;;5037568;28;20479;-82
2022/04/01 10:34:22;;;;;;;8.13;6.00;;;2.20;76.20;;;;;;5036027;28;20452;-82
2022/04/01 10:36:59;;;;;;;8.60;5.30;;;2.30;76.40;;;;;;5035702;28;20468;-82
2022/04/01 10:39:28;;;;;;;8.57;3.73;;;2.30;75.00;;;;;;5035084;28;20463;-82
2022/04/01 10:42:10;;;;;;;8.20;5.47;;;2.40;76.50;;;;;;5057086;23;20506;-78
2022/04/01 10:44:56;;;;;;;7.83;5.13;;;2.40;72.90;;;;;;5033729;28;20468;-80
2022/04/01 10:47:25;;;;;;;7.97;5.47;;;2.60;74.00;;;;;;5032942;28;20459;-78
2022/04/01 10:52:53;;;;;;;7.23;5.30;;;2.80;74.60;;;;;;4935027;29;20475;-79
2022/04/01 10:55:28;;;;;;;7.30;5.00;;;2.90;69.10;;;;;;4934335;29;20453;-79
2022/04/01 10:58:08;;;;;;;8.67;4.73;;;2.80;69.40;;;;;;4984009;28;20490;-78
2022/04/01 11:00:36;;;;;;;6.33;3.80;;;2.80;72.20;;;;;;5033876;28;20460;-79
2022/04/01 11:03:22;;;;;;;6.90;5.00;;;2.70;71.90;;;;;;5033871;28;20480;-79
2022/04/01 11:05:49;;;;;;;12.10;6.40;;;2.70;72.70;;;;;;5034012;28;20456;-79
2022/04/01 11:08:17;;;;;;;7.33;5.27;;;2.70;71.60;;;;;;5032766;28;20822;-77
2022/04/01 11:11:06;;;;;;;12.10;6.10;;;2.50;69.30;;;;;;5034607;28;20778;-78
2022/04/01 11:13:32;;;;;;;8.80;5.83;;;2.60;70.70;;;;;;5035710;28;20456;-79
2022/04/01 11:16:15;;;;;;;10.13;5.93;;;2.60;71.10;;;;;;5035104;28;20464;-79
2022/04/01 11:19:15;;;;;;;6.73;4.57;;;2.70;71.20;;;;;;5034542;28;20479;-79
2022/04/01 11:21:43;;;;;;;9.00;5.23;;;2.60;72.50;;;;;;5023394;28;20480;-78
2022/04/01 11:24:33;;;;;;;7.00;4.97;;;2.60;70.40;;;;;;5035824;28;20448;-80
2022/04/01 11:27:07;;;;;;;7.53;5.27;;;2.40;71.20;;;;;;5031975;28;20448;-79
2022/04/01 11:29:33;;;;;;;7.93;4.90;;;2.50;70.20;;;;;;5032692;28;20456;-78
2022/04/01 11:32:08;;;;;;;8.73;5.93;;;2.40;68.20;;;;;;5034178;28;20476;-79
2022/04/01 11:34:57;;;;;;;7.17;4.10;;;2.50;70.90;;;;;;5032619;28;20517;-79
2022/04/01 11:37:25;;;;;;;7.40;5.17;;;2.60;69.60;;;;;;5034493;28;20582;-79
2022/04/01 11:39:52;;;;;;;9.00;5.40;;;2.70;70.40;;;;;;5033202;28;20463;-79
2022/04/01 11:42:20;;;;;;;7.93;5.70;;;2.70;68.40;;;;;;5033817;28;20484;-79
2022/04/01 11:44:56;;;;;;;7.43;4.80;;;2.70;68.80;;;;;;5033699;28;21178;-80
2022/04/01 11:47:32;;;;;;;8.37;5.07;;;2.60;67.20;;;;;;5031778;28;20527;-78
2022/04/01 11:50:07;;;;;;;6.00;4.40;;;2.60;67.90;;;;;;5033662;28;20463;-80
2022/04/01 11:52:39;;;;;;;8.43;5.53;;;2.70;69.40;;;;;;5032216;28;20471;-78
2022/04/01 11:55:12;;;;;;;16.87;9.27;;;2.70;66.70;;;;;;5034067;28;20964;-80
2022/04/01 11:57:39;;;;;;;9.70;6.90;;;2.90;68.10;;;;;;5033891;28;20472;-80
2022/04/01 12:00:10;;;;;;;9.30;6.87;;;2.90;68.90;;;;;;5031502;28;20463;-79
2022/04/01 12:02:39;;;;;;;8.23;5.10;;;2.80;69.90;;;;;;5034448;28;20858;-79
2022/04/01 12:05:06;;;;;;;10.03;6.37;;;2.70;66.60;;;;;;5032893;28;20456;-79
2022/04/01 12:10:22;;;;;;;7.63;5.50;;;2.70;69.00;;;;;;5032102;28;20435;-79
2022/04/01 12:12:56;;;;;;;7.30;5.83;;;2.50;67.80;;;;;;5031827;28;20480;-81
2022/04/01 12:15:34;;;;;;;12.30;5.20;;;2.50;69.80;;;;;;5033159;28;20462;-80
2022/04/01 12:18:05;;;;;;;8.93;5.60;;;2.60;68.80;;;;;;5032699;28;20472;-78
2022/04/01 12:20:38;;;;;;;9.10;5.80;;;2.50;67.50;;;;;;5029925;28;20464;-78
2022/04/01 12:23:06;;;;;;;7.37;4.70;;;2.60;69.00;;;;;;5032741;28;20452;-80
2022/04/01 12:25:34;;;;;;;7.40;6.07;;;2.60;68.20;;;;;;5032087;28;20460;-79
2022/04/01 12:28:02;;;;;;;7.50;5.47;;;2.50;68.30;;;;;;5032139;28;20451;-80
2022/04/01 12:30:34;;;;;;;8.87;6.13;;;2.50;68.10;;;;;;5031237;28;20656;-78
2022/04/01 12:33:06;;;;;;;10.83;6.40;;;2.60;70.70;;;;;;5032612;28;20562;-79
2022/04/01 12:35:33;;;;;;;8.33;4.70;;;2.70;71.60;;;;;;5031811;28;20464;-79
2022/04/01 12:38:08;;;;;;;9.30;6.17;;;2.60;71.60;;;;;;5031646;28;21031;-79
2022/04/01 12:40:50;;;;;;;9.30;7.20;;;2.60;69.80;;;;;;5030478;28;20463;-79
2022/04/01 12:43:46;;;;;;;10.30;6.00;;;2.70;71.80;;;;;;5029299;28;20456;-79
2022/04/01 12:46:14;;;;;;;6.07;4.40;;;2.60;68.90;;;;;;5031239;28;21289;-78
2022/04/01 12:48:50;;;;;;;6.70;4.57;;;2.70;70.00;;;;;;5031893;28;20459;-82
2022/04/01 12:51:23;;;;;;;10.07;6.10;;;2.70;69.40;;;;;;5033372;28;20478;-79
2022/04/01 12:54:04;;;;;;;8.83;6.13;;;2.80;69.00;;;;;;5034060;28;20459;-80
2022/04/01 12:56:33;;;;;;;6.63;4.87;;;2.90;69.90;;;;;;5033406;28;20531;-80
2022/04/01 12:59:04;;;;;;;8.40;5.97;;;2.90;69.70;;;;;;5032163;28;20476;-79
2022/04/01 13:01:32;;;;;;;8.40;5.27;;;2.90;71.40;;;;;;5032092;28;20476;-79